aviador You're here:

KGAG Decoded Metar

GAGE in OK, USA
Report Time2017-12-15 13:53:00
UTC Time2017-12-15 14:04:42
Flight Rules vfr VFR
Wind240° at 07 kt
W.Decomp.*RWY 17: 3.3 kt HW 6.2 kt RCW
W.Rank240° ranks 13
Current wind is below 240° avg. (7.7)
Visibility9999 m
Phenomena:N/A
Clouds:N/A
Expected CloudBase > 400 ft AGL from Temp-Dew spread
CeilingNone
Temp-8°C (ISA -19)
Dew Point-9°C (93% RH)
AAT-13.5°C
QNH1025 hPa
Density Alt-472 ft
Elevation2,192 ft
Report Wrong Elevation
Raw Report
KGAG 151353Z AUTO 24007KT 10SM CLR M08/M09 A3026 RMK AO2 SLP265
T10781094=

Extra information for KGAG:More info

Metar Taf Metar & Taf Last 4 Metars F.Rules Stats Wind Profile Meteogram Temp Stats Airport Information Weather charts Add Link Nearby VenuesMetar ALERT Operation Metar Decoded Social comments

AIRNAV info for KGAG